createdAt,value
2018-09-13T00:01:16.058Z,4.57
2018-09-13T00:03:44.760Z,5.90
2018-09-13T00:06:13.349Z,5.00
2018-09-13T00:08:41.922Z,5.63
2018-09-13T00:11:10.508Z,5.03
2018-09-13T00:13:39.074Z,5.23
2018-09-13T00:16:07.693Z,6.60
2018-09-13T00:18:36.264Z,5.97
2018-09-13T00:21:04.893Z,5.50
2018-09-13T00:23:33.480Z,5.60
2018-09-13T00:26:02.183Z,5.33
2018-09-13T00:28:30.755Z,5.43
2018-09-13T00:30:59.376Z,5.77
2018-09-13T00:33:27.952Z,4.50
2018-09-13T00:35:56.580Z,5.40
2018-09-13T00:38:25.168Z,4.60
2018-09-13T00:40:53.769Z,6.07
2018-09-13T00:43:22.347Z,5.50
2018-09-13T00:45:51.070Z,5.40
2018-09-13T00:48:19.673Z,5.07
2018-09-13T00:50:48.304Z,5.27
2018-09-13T00:53:16.877Z,5.70
2018-09-13T00:55:45.485Z,5.93
2018-09-13T00:58:14.055Z,5.40
2018-09-13T01:00:42.677Z,5.77
2018-09-13T01:03:11.256Z,5.73
2018-09-13T01:05:39.872Z,6.10
2018-09-13T01:08:08.484Z,5.60
2018-09-13T01:10:37.060Z,6.03
2018-09-13T01:13:05.801Z,4.43
2018-09-13T01:15:34.381Z,6.30
2018-09-13T01:18:03.018Z,5.73
2018-09-13T01:20:31.607Z,6.00
2018-09-13T01:23:00.248Z,6.30
2018-09-13T01:25:28.828Z,5.13
2018-09-13T01:27:57.412Z,5.03
2018-09-13T01:30:26.005Z,6.30
2018-09-13T01:32:54.597Z,5.87
2018-09-13T01:35:23.186Z,6.07
2018-09-13T01:37:51.805Z,6.10
2018-09-13T01:40:20.994Z,6.13
2018-09-13T01:42:49.584Z,5.13
2018-09-13T01:45:18.148Z,6.13
2018-09-13T01:47:46.729Z,5.37
2018-09-13T01:50:15.298Z,6.60
2018-09-13T01:52:43.920Z,6.03
2018-09-13T01:55:12.496Z,7.00
2018-09-13T01:57:41.090Z,6.40
2018-09-13T02:00:09.738Z,5.60
2018-09-13T02:02:38.328Z,5.40
2018-09-13T02:05:06.946Z,5.70
2018-09-13T02:07:35.530Z,6.40
2018-09-13T02:10:04.154Z,6.17
2018-09-13T02:12:32.757Z,6.47
2018-09-13T02:15:01.333Z,6.23
2018-09-13T02:17:29.921Z,5.90
2018-09-13T02:19:58.486Z,6.33
2018-09-13T02:22:27.075Z,5.67
2018-09-13T02:24:55.639Z,6.03
2018-09-13T02:27:24.253Z,6.10
2018-09-13T02:29:52.858Z,6.10
2018-09-13T02:32:21.551Z,5.90
2018-09-13T02:34:50.257Z,5.60
2018-09-13T02:37:18.874Z,5.80
2018-09-13T02:39:47.498Z,5.60
2018-09-13T02:42:16.176Z,6.03
2018-09-13T02:44:44.760Z,5.37
2018-09-13T02:47:13.384Z,6.60
2018-09-13T02:49:41.984Z,5.53
2018-09-13T02:52:10.559Z,7.40
2018-09-13T02:54:39.146Z,6.03
2018-09-13T02:57:07.750Z,6.17
2018-09-13T02:59:36.332Z,6.80
2018-09-13T03:02:04.950Z,31.40
2018-09-13T03:04:33.577Z,8.07
2018-09-13T03:07:02.174Z,6.50
2018-09-13T03:09:30.785Z,6.10
2018-09-13T03:11:59.361Z,6.30
2018-09-13T03:14:27.957Z,7.17
2018-09-13T03:16:56.532Z,6.40
2018-09-13T03:19:25.137Z,7.30
2018-09-13T03:21:53.725Z,6.00
2018-09-13T03:24:22.309Z,6.80
2018-09-13T03:26:50.892Z,6.70
2018-09-13T03:29:19.549Z,7.20
2018-09-13T03:31:48.121Z,6.83
2018-09-13T03:34:16.707Z,7.20
2018-09-13T03:36:45.274Z,7.47
2018-09-13T03:39:13.912Z,6.63
2018-09-13T03:41:42.495Z,7.03
2018-09-13T03:44:11.098Z,7.57
2018-09-13T03:46:39.660Z,7.20
2018-09-13T03:49:08.245Z,6.60
2018-09-13T03:51:36.817Z,8.00
2018-09-13T03:54:05.464Z,8.27
2018-09-13T03:56:34.039Z,24.90
2018-09-13T03:59:02.672Z,21.37
2018-09-13T04:01:31.273Z,20.10
2018-09-13T04:03:59.889Z,30.37
2018-09-13T04:06:28.501Z,17.90
2018-09-13T04:08:57.136Z,10.40
2018-09-13T04:11:25.743Z,11.00
2018-09-13T04:13:54.490Z,10.70
2018-09-13T04:16:23.087Z,27.20
2018-09-13T04:18:51.759Z,28.30
2018-09-13T04:21:20.286Z,18.57
2018-09-13T04:23:48.854Z,9.20
2018-09-13T04:26:17.450Z,8.00
2018-09-13T04:28:46.160Z,7.40
2018-09-13T04:31:14.770Z,8.13
2018-09-13T04:33:43.467Z,6.80
2018-09-13T04:36:12.580Z,8.87
2018-09-13T04:38:41.129Z,8.90
2018-09-13T04:41:09.716Z,7.70
2018-09-13T04:43:38.408Z,8.03
2018-09-13T04:46:07.471Z,7.37
2018-09-13T04:48:36.475Z,7.90
2018-09-13T04:51:05.171Z,7.47
2018-09-13T04:53:34.135Z,7.33
2018-09-13T04:56:06.055Z,7.47
2018-09-13T04:58:46.766Z,7.10
2018-09-13T05:01:15.390Z,8.33
2018-09-13T05:03:43.968Z,8.50
2018-09-13T05:06:13.470Z,11.37
2018-09-13T05:08:42.065Z,10.03
2018-09-13T05:11:10.682Z,11.90
2018-09-13T05:13:39.257Z,10.17
2018-09-13T05:16:07.869Z,12.77
2018-09-13T05:18:36.448Z,9.63
2018-09-13T05:21:05.077Z,10.40
2018-09-13T05:23:33.690Z,16.30
2018-09-13T05:26:02.301Z,14.20
2018-09-13T05:28:31.003Z,9.57
2018-09-13T05:30:59.579Z,9.20
2018-09-13T05:33:28.189Z,8.87
2018-09-13T05:35:56.762Z,11.27
2018-09-13T05:38:25.377Z,11.43
2018-09-13T05:40:53.945Z,8.93
2018-09-13T05:43:22.886Z,8.37
2018-09-13T05:45:51.535Z,9.20
2018-09-13T05:48:20.671Z,13.47
2018-09-13T05:50:49.267Z,11.40
2018-09-13T05:53:17.854Z,9.00
2018-09-13T05:55:46.421Z,9.10
2018-09-13T05:58:15.127Z,9.57
2018-09-13T06:00:43.712Z,10.53
2018-09-13T06:03:12.482Z,9.80
2018-09-13T06:05:41.056Z,18.57
2018-09-13T06:08:09.646Z,9.03
2018-09-13T06:10:38.286Z,11.93
2018-09-13T06:13:06.928Z,11.33
2018-09-13T06:15:35.484Z,13.13
2018-09-13T06:18:04.214Z,10.77
2018-09-13T06:20:32.852Z,10.87
2018-09-13T06:23:01.461Z,9.73
2018-09-13T06:25:30.033Z,9.50
2018-09-13T06:27:58.656Z,10.00
2018-09-13T06:30:27.264Z,10.10
2018-09-13T06:32:55.852Z,9.90
2018-09-13T06:35:24.679Z,11.40
2018-09-13T06:37:53.335Z,11.03
2018-09-13T06:40:22.032Z,11.60
2018-09-13T06:42:50.605Z,11.70
2018-09-13T06:45:19.220Z,11.93
2018-09-13T06:47:47.792Z,13.10
2018-09-13T06:50:16.396Z,14.40
2018-09-13T06:52:44.971Z,14.40
2018-09-13T06:55:13.566Z,13.70
2018-09-13T06:57:42.161Z,16.43
2018-09-13T07:00:10.781Z,14.13
2018-09-13T07:02:39.371Z,15.37
2018-09-13T07:05:08.025Z,14.70
2018-09-13T07:07:36.644Z,14.90
2018-09-13T07:10:05.307Z,15.00
2018-09-13T07:12:33.934Z,15.30
2018-09-13T07:15:02.556Z,14.77
2018-09-13T07:17:31.130Z,15.80
2018-09-13T07:19:59.751Z,15.27
2018-09-13T07:22:28.334Z,14.87
2018-09-13T07:24:56.916Z,15.13
2018-09-13T07:27:25.635Z,15.03
2018-09-13T07:29:54.225Z,14.10
2018-09-13T07:32:22.797Z,13.90
2018-09-13T07:34:51.393Z,15.60
2018-09-13T07:37:20.042Z,14.00
2018-09-13T07:39:48.788Z,15.30
2018-09-13T07:42:19.190Z,12.37
2018-09-13T07:44:47.931Z,13.57
2018-09-13T07:47:16.536Z,14.13
2018-09-13T07:49:45.245Z,14.00
2018-09-13T07:52:13.746Z,15.37
2018-09-13T07:54:42.344Z,15.20
2018-09-13T07:57:10.920Z,15.17
2018-09-13T07:59:39.518Z,13.83
2018-09-13T08:02:08.106Z,15.10
2018-09-13T08:04:36.819Z,13.23
2018-09-13T08:07:05.496Z,15.20
2018-09-13T08:09:34.113Z,13.57
2018-09-13T08:12:02.750Z,12.37
2018-09-13T08:14:31.306Z,13.60
2018-09-13T08:16:59.881Z,12.60
2018-09-13T08:19:28.490Z,12.70
2018-09-13T08:21:57.165Z,10.97
2018-09-13T08:24:25.750Z,12.97
2018-09-13T08:26:55.402Z,14.00
2018-09-13T08:29:23.967Z,13.57
2018-09-13T08:31:52.622Z,13.00
2018-09-13T08:34:21.237Z,13.47
2018-09-13T08:36:50.027Z,12.70
2018-09-13T08:39:18.629Z,12.77
2018-09-13T08:41:47.251Z,12.40
2018-09-13T08:44:15.836Z,13.00
2018-09-13T08:46:44.438Z,10.80
2018-09-13T08:49:13.019Z,11.97
2018-09-13T08:51:41.613Z,11.80
2018-09-13T08:54:10.214Z,11.90
2018-09-13T08:56:38.942Z,13.90
2018-09-13T08:59:07.553Z,11.03
2018-09-13T09:01:36.159Z,10.10
2018-09-13T09:04:04.761Z,11.30
2018-09-13T09:06:33.488Z,11.27
2018-09-13T09:09:03.158Z,12.53
2018-09-13T09:11:31.762Z,12.17
2018-09-13T09:14:00.342Z,11.13
2018-09-13T09:16:29.028Z,12.37
2018-09-13T09:18:57.621Z,11.43
2018-09-13T09:21:26.225Z,11.83
2018-09-13T09:23:54.819Z,11.00
2018-09-13T09:26:24.309Z,10.00
2018-09-13T09:28:52.930Z,11.90
2018-09-13T09:31:21.526Z,10.60
2018-09-13T09:33:50.123Z,10.90
2018-09-13T09:36:18.733Z,11.60
2018-09-13T09:38:47.420Z,11.23
2018-09-13T09:41:16.021Z,9.03
2018-09-13T09:43:44.595Z,10.03
2018-09-13T09:46:13.201Z,11.23
2018-09-13T09:48:41.817Z,10.53
2018-09-13T09:51:10.457Z,10.43
2018-09-13T09:53:39.041Z,10.03
2018-09-13T09:56:07.698Z,11.00
2018-09-13T09:58:36.290Z,10.77
2018-09-13T10:01:10.271Z,10.00
2018-09-13T10:03:39.105Z,9.97
2018-09-13T10:06:08.073Z,9.80
2018-09-13T10:08:36.648Z,9.70
2018-09-13T10:11:05.242Z,9.97
2018-09-13T10:13:33.825Z,10.73
2018-09-13T10:16:07.739Z,10.77
2018-09-13T10:18:41.565Z,9.30
2018-09-13T10:21:15.569Z,9.33
2018-09-13T10:23:49.405Z,9.50
2018-09-13T10:26:23.350Z,9.70
2018-09-13T10:28:57.200Z,10.07
2018-09-13T10:31:31.045Z,9.50
2018-09-13T10:34:04.944Z,9.33
2018-09-13T10:36:38.841Z,7.87
2018-09-13T10:39:14.084Z,8.00
2018-09-13T10:41:48.342Z,8.87
2018-09-13T10:44:22.265Z,8.00
2018-09-13T10:46:56.116Z,7.80
2018-09-13T10:49:30.041Z,7.20
2018-09-13T10:54:07.663Z,7.97
2018-09-13T10:56:36.375Z,8.50
2018-09-13T10:59:05.025Z,9.40
2018-09-13T11:01:33.760Z,9.43
2018-09-13T11:04:02.476Z,7.67
2018-09-13T11:06:31.122Z,9.03
2018-09-13T11:08:59.730Z,8.80
2018-09-13T11:11:28.306Z,8.67
2018-09-13T11:14:17.512Z,9.50
2018-09-13T11:16:46.233Z,8.00
2018-09-13T11:19:14.792Z,8.50
2018-09-13T11:21:43.404Z,7.60
2018-09-13T11:24:11.960Z,9.00
2018-09-13T11:26:40.543Z,8.93
2018-09-13T11:29:09.174Z,8.70
2018-09-13T11:31:38.133Z,7.83
2018-09-13T11:34:06.946Z,7.57
2018-09-13T11:36:35.532Z,7.60
2018-09-13T11:39:06.166Z,8.17
2018-09-13T11:41:34.742Z,7.67
2018-09-13T11:44:03.380Z,8.40
2018-09-13T11:46:31.948Z,8.73
2018-09-13T11:49:00.571Z,7.90
2018-09-13T11:51:29.133Z,8.10
2018-09-13T11:53:57.890Z,7.50
2018-09-13T11:56:26.458Z,7.73
2018-09-13T11:58:55.060Z,8.23
2018-09-13T12:01:23.629Z,8.10
2018-09-13T12:03:52.346Z,8.00
2018-09-13T12:06:20.996Z,8.13
2018-09-13T12:08:49.588Z,7.53
2018-09-13T12:11:18.163Z,7.53
2018-09-13T12:13:46.774Z,8.30
2018-09-13T12:16:15.442Z,6.90
2018-09-13T12:18:44.043Z,7.43
2018-09-13T12:21:12.653Z,6.60
2018-09-13T12:23:41.272Z,7.30
2018-09-13T12:26:09.855Z,6.33
2018-09-13T12:28:38.572Z,6.40
2018-09-13T12:31:07.184Z,6.70
2018-09-13T12:33:35.795Z,5.77
2018-09-13T12:36:04.454Z,4.83
2018-09-13T12:38:33.065Z,5.40
2018-09-13T12:41:01.970Z,4.90
2018-09-13T12:43:30.582Z,4.27
2018-09-13T12:45:59.177Z,5.07
2018-09-13T12:48:27.788Z,5.10
2018-09-13T12:50:56.508Z,5.37
2018-09-13T12:53:25.094Z,6.67
2018-09-13T12:55:53.739Z,5.97
2018-09-13T12:58:22.850Z,5.87
2018-09-13T13:00:51.576Z,5.90
2018-09-13T13:03:20.922Z,5.90
2018-09-13T13:05:50.158Z,5.90
2018-09-13T13:08:19.030Z,5.30
2018-09-13T13:10:47.626Z,6.07
2018-09-13T13:13:16.288Z,5.20
2018-09-13T13:15:44.896Z,6.00
2018-09-13T13:18:13.512Z,4.53
2018-09-13T13:20:42.116Z,5.10
2018-09-13T13:23:10.714Z,5.60
2018-09-13T13:25:39.324Z,6.60
2018-09-13T13:28:07.888Z,6.27
2018-09-13T13:30:36.497Z,7.20
2018-09-13T13:33:05.077Z,7.23
2018-09-13T13:35:35.359Z,6.90
2018-09-13T13:38:04.005Z,6.90
2018-09-13T13:40:32.598Z,5.97
2018-09-13T13:43:01.169Z,7.60
2018-09-13T13:45:29.841Z,7.00
2018-09-13T13:47:59.145Z,7.80
2018-09-13T13:50:27.754Z,7.40
2018-09-13T13:52:56.877Z,8.53
2018-09-13T13:55:25.621Z,7.80
2018-09-13T13:57:54.192Z,7.37
2018-09-13T14:00:22.903Z,8.77
2018-09-13T14:02:51.471Z,9.97
2018-09-13T14:05:20.086Z,11.57
2018-09-13T14:07:49.384Z,12.17
2018-09-13T14:10:18.034Z,13.03
2018-09-13T14:12:46.726Z,12.80
2018-09-13T14:15:15.465Z,13.33
2018-09-13T14:17:44.080Z,12.00
2018-09-13T14:20:12.897Z,13.60
2018-09-13T14:22:41.553Z,13.97
2018-09-13T14:25:10.243Z,14.83
2018-09-13T14:27:38.865Z,13.50
2018-09-13T14:30:07.526Z,14.50
2018-09-13T14:32:36.129Z,14.53
2018-09-13T14:35:04.753Z,13.97
2018-09-13T14:37:33.376Z,14.27
2018-09-13T14:40:02.075Z,13.07
2018-09-13T14:42:30.660Z,14.47
2018-09-13T14:44:59.247Z,12.40
2018-09-13T14:47:27.944Z,13.73
2018-09-13T14:49:56.493Z,15.00
2018-09-13T14:52:25.136Z,14.53
2018-09-13T14:54:53.708Z,15.80
2018-09-13T14:57:22.430Z,14.27
2018-09-13T14:59:50.975Z,13.67
2018-09-13T15:02:19.757Z,13.53
2018-09-13T15:04:48.401Z,13.63
2018-09-13T15:07:17.072Z,13.30
2018-09-13T15:09:45.634Z,11.70
2018-09-13T15:12:14.244Z,11.43
2018-09-13T15:14:42.816Z,9.77
2018-09-13T15:17:11.550Z,9.90
2018-09-13T15:19:40.125Z,9.50
2018-09-13T15:22:08.724Z,8.60
2018-09-13T15:24:37.471Z,9.77
2018-09-13T15:27:06.127Z,9.10
2018-09-13T15:29:34.845Z,7.83
2018-09-13T15:32:03.506Z,8.07
2018-09-13T15:34:32.103Z,9.63
2018-09-13T15:37:00.795Z,9.90
2018-09-13T15:39:29.465Z,12.43
2018-09-13T15:41:58.040Z,11.50
2018-09-13T15:44:26.693Z,10.43
2018-09-13T15:46:55.330Z,10.83
2018-09-13T15:49:23.924Z,10.80
2018-09-13T15:51:52.534Z,12.00
2018-09-13T15:54:21.423Z,11.60
2018-09-13T15:56:50.012Z,13.07
2018-09-13T15:59:18.692Z,11.07
2018-09-13T16:01:48.464Z,9.87
2018-09-13T16:04:17.070Z,9.47
2018-09-13T16:06:46.203Z,9.43
2018-09-13T16:09:14.873Z,8.80
2018-09-13T16:11:44.412Z,8.23
2018-09-13T16:14:13.036Z,9.03
2018-09-13T16:16:41.611Z,8.00
2018-09-13T16:19:10.212Z,9.70
2018-09-13T16:21:38.793Z,9.00
2018-09-13T16:24:07.437Z,10.23
2018-09-13T16:26:36.013Z,11.10
2018-09-13T16:29:04.733Z,10.80
2018-09-13T16:31:33.344Z,10.23
2018-09-13T16:34:02.018Z,12.50
2018-09-13T16:36:31.369Z,11.00
2018-09-13T16:39:10.465Z,11.13
2018-09-13T16:41:44.476Z,11.13
2018-09-13T16:44:18.345Z,11.77
2018-09-13T16:46:52.308Z,11.50
2018-09-13T16:49:20.907Z,11.33
2018-09-13T16:51:49.589Z,11.20
2018-09-13T16:54:18.317Z,11.10
2018-09-13T16:56:46.893Z,10.90
2018-09-13T16:59:15.518Z,12.17
2018-09-13T17:01:44.100Z,11.70
2018-09-13T17:04:12.713Z,11.87
2018-09-13T17:06:41.294Z,12.10
2018-09-13T17:09:10.283Z,11.70
2018-09-13T17:11:39.515Z,8.77
2018-09-13T17:14:08.162Z,9.67
2018-09-13T17:16:36.747Z,10.97
2018-09-13T17:19:05.550Z,10.10
2018-09-13T17:21:34.145Z,10.70
2018-09-13T17:24:02.745Z,9.93
2018-09-13T17:26:31.703Z,11.13
2018-09-13T17:29:00.772Z,10.30
2018-09-13T17:31:29.479Z,10.17
2018-09-13T17:33:58.653Z,11.03
2018-09-13T17:36:27.344Z,9.30
2018-09-13T17:38:55.946Z,8.83
2018-09-13T17:41:24.556Z,9.57
2018-09-13T17:43:53.130Z,8.60
2018-09-13T17:46:22.167Z,9.53
2018-09-13T17:48:50.743Z,8.40
2018-09-13T17:51:19.340Z,9.40
2018-09-13T17:53:47.921Z,9.70
2018-09-13T17:56:16.629Z,10.37
2018-09-13T17:58:45.218Z,10.23
2018-09-13T18:01:13.901Z,10.00
2018-09-13T18:03:42.659Z,9.07
2018-09-13T18:06:11.258Z,10.30
2018-09-13T18:08:40.205Z,8.83
2018-09-13T18:11:08.860Z,9.57
2018-09-13T18:13:37.450Z,10.10
2018-09-13T18:16:06.212Z,9.10
2018-09-13T18:18:34.796Z,9.43
2018-09-13T18:21:03.422Z,10.07
2018-09-13T18:23:31.987Z,9.00
2018-09-13T18:26:00.592Z,8.73
2018-09-13T18:28:29.207Z,7.43
2018-09-13T18:30:57.808Z,7.90
2018-09-13T18:33:26.383Z,10.97
2018-09-13T18:35:55.043Z,9.53
2018-09-13T18:38:23.652Z,9.23
2018-09-13T18:40:53.110Z,9.07
2018-09-13T18:43:21.724Z,9.20
2018-09-13T18:45:50.925Z,8.80
2018-09-13T18:48:20.394Z,8.80
2018-09-13T18:50:48.996Z,7.73
2018-09-13T18:53:17.594Z,6.90
2018-09-13T18:55:46.261Z,7.50
2018-09-13T18:58:14.880Z,8.53
2018-09-13T19:00:43.482Z,6.63
2018-09-13T19:03:12.113Z,7.90
2018-09-13T19:05:40.682Z,7.90
2018-09-13T19:08:10.266Z,7.33
2018-09-13T19:10:38.860Z,9.50
2018-09-13T19:13:07.496Z,8.87
2018-09-13T19:15:36.365Z,9.50
2018-09-13T19:18:05.007Z,9.90
2018-09-13T19:20:33.597Z,9.30
2018-09-13T19:23:02.224Z,9.10
2018-09-13T19:25:30.845Z,9.30
2018-09-13T19:27:59.457Z,10.47
2018-09-13T19:30:28.070Z,9.70
2018-09-13T19:32:56.849Z,9.70
2018-09-13T19:35:25.296Z,8.97
2018-09-13T19:37:54.161Z,8.70
2018-09-13T19:40:23.406Z,7.40
2018-09-13T19:42:52.248Z,8.90
2018-09-13T19:45:20.819Z,8.10
2018-09-13T19:47:49.422Z,10.60
2018-09-13T19:50:18.044Z,8.57
2018-09-13T19:52:46.624Z,8.40
2018-09-13T19:55:15.208Z,7.97
2018-09-13T19:57:43.764Z,7.83
2018-09-13T20:00:12.361Z,8.40
2018-09-13T20:02:40.957Z,7.60
2018-09-13T20:05:09.553Z,7.50
2018-09-13T20:07:39.174Z,8.53
2018-09-13T20:10:07.797Z,7.97
2018-09-13T20:12:36.380Z,8.27
2018-09-13T20:15:05.693Z,7.60
2018-09-13T20:17:34.292Z,8.53
2018-09-13T20:20:02.953Z,7.07
2018-09-13T20:22:31.528Z,9.37
2018-09-13T20:25:00.145Z,9.70
2018-09-13T20:27:28.717Z,9.37
2018-09-13T20:29:57.307Z,8.40
2018-09-13T20:32:25.872Z,8.03
2018-09-13T20:34:54.460Z,7.83
2018-09-13T20:37:23.048Z,8.03
2018-09-13T20:39:51.646Z,7.90
2018-09-13T20:42:20.950Z,8.23
2018-09-13T20:44:49.547Z,8.70
2018-09-13T20:47:18.133Z,8.83
2018-09-13T20:49:46.731Z,8.37
2018-09-13T20:52:15.300Z,7.80
2018-09-13T20:54:43.947Z,8.10
2018-09-13T20:57:12.511Z,8.23
2018-09-13T20:59:41.230Z,7.60
2018-09-13T21:02:09.822Z,7.77
2018-09-13T21:04:38.414Z,7.40
2018-09-13T21:07:07.009Z,8.40
2018-09-13T21:09:35.596Z,8.60
2018-09-13T21:12:04.179Z,7.30
2018-09-13T21:14:32.796Z,7.80
2018-09-13T21:17:01.405Z,7.93
2018-09-13T21:19:29.981Z,8.40
2018-09-13T21:21:58.552Z,6.83
2018-09-13T21:24:27.203Z,7.63
2018-09-13T21:26:55.735Z,8.37
2018-09-13T21:29:24.320Z,7.20
2018-09-13T21:31:53.005Z,8.33
2018-09-13T21:34:22.164Z,8.23
2018-09-13T21:36:50.785Z,9.27
2018-09-13T21:39:19.372Z,7.90
2018-09-13T21:41:47.962Z,8.13
2018-09-13T21:44:16.544Z,7.77
2018-09-13T21:46:45.146Z,6.70
2018-09-13T21:49:13.721Z,6.80
2018-09-13T21:51:42.317Z,7.00
2018-09-13T21:54:10.951Z,8.10
2018-09-13T21:56:39.548Z,7.43
2018-09-13T21:59:08.239Z,6.30
2018-09-13T22:01:36.828Z,6.83
2018-09-13T22:04:05.410Z,7.27
2018-09-13T22:06:34.005Z,6.67
2018-09-13T22:09:02.641Z,6.30
2018-09-13T22:11:31.235Z,6.00
2018-09-13T22:13:59.806Z,5.53
2018-09-13T22:16:28.391Z,5.90
2018-09-13T22:18:56.965Z,7.17
2018-09-13T22:21:25.579Z,5.60
2018-09-13T22:23:54.148Z,6.07
2018-09-13T22:26:22.749Z,6.10
2018-09-13T22:28:51.348Z,5.80
2018-09-13T22:31:19.936Z,5.90
2018-09-13T22:33:48.495Z,6.80
2018-09-13T22:36:17.638Z,7.50
2018-09-13T22:38:46.417Z,6.37
2018-09-13T22:41:15.006Z,6.60
2018-09-13T22:43:48.781Z,7.60
2018-09-13T22:46:17.366Z,7.30
2018-09-13T22:48:45.929Z,7.07
2018-09-13T22:51:14.662Z,8.10
2018-09-13T22:53:43.221Z,7.40
2018-09-13T22:56:11.814Z,6.73
2018-09-13T22:58:40.383Z,6.20
2018-09-13T23:01:08.973Z,6.63
2018-09-13T23:03:37.570Z,7.40
2018-09-13T23:06:06.222Z,7.07
2018-09-13T23:08:34.805Z,6.80
2018-09-13T23:11:03.404Z,6.50
2018-09-13T23:13:31.974Z,7.13
2018-09-13T23:16:00.661Z,7.27
2018-09-13T23:18:29.362Z,7.40
2018-09-13T23:20:57.997Z,6.93
2018-09-13T23:23:26.589Z,7.63
2018-09-13T23:25:55.285Z,7.43
2018-09-13T23:28:23.882Z,7.87
2018-09-13T23:30:52.449Z,6.83
2018-09-13T23:33:21.048Z,7.30
2018-09-13T23:35:49.611Z,6.57
2018-09-13T23:38:18.529Z,7.30
2018-09-13T23:40:47.239Z,6.20
2018-09-13T23:43:15.716Z,7.50
2018-09-13T23:45:44.286Z,6.30
2018-09-13T23:48:12.873Z,6.57
2018-09-13T23:50:41.450Z,6.40
2018-09-13T23:53:10.074Z,6.10
2018-09-13T23:55:38.644Z,6.23
2018-09-13T23:58:07.245Z,6.37
